Time;durP1;ratioP1;P1;durP2;ratioP2;P2;SDS_P1;SDS_P2;PMS_P1;PMS_P2;Temp;Humidity;BMP_temperature;BMP_pressure;BME280_temperature;BME280_humidity;BME280_pressure;Samples;Min_cycle;Max_cycle;Signal;HPM_P1;HPM_P2
2023/01/21 07:42:00;;;;;;;14.45;8.60;;;-2.00;99.90;;;;;;5188161;23;20074;-76
2023/01/21 07:44:26;;;;;;;13.95;8.43;;;-2.10;99.90;;;;;;4920106;29;20051;-78
2023/01/21 07:46:53;;;;;;;11.65;8.13;;;-2.10;99.90;;;;;;4922481;29;20134;-79
2023/01/21 07:49:20;;;;;;;16.65;9.45;;;-2.00;99.90;;;;;;4928039;29;20044;-81
2023/01/21 07:51:47;;;;;;;13.15;9.10;;;-2.00;99.90;;;;;;4931961;29;20135;-79
2023/01/21 07:54:14;;;;;;;12.52;8.18;;;-2.00;99.90;;;;;;4924556;29;20040;-79
2023/01/21 07:56:41;;;;;;;11.10;7.50;;;-2.00;99.90;;;;;;4939476;23;20076;-81
2023/01/21 07:59:09;;;;;;;14.30;8.82;;;-2.00;99.90;;;;;;4923217;29;20045;-82
2023/01/21 08:01:36;;;;;;;14.10;8.30;;;-2.00;99.90;;;;;;4919397;29;20079;-82
2023/01/21 08:04:03;;;;;;;11.82;6.70;;;-2.00;99.90;;;;;;4923023;29;20057;-81
2023/01/21 08:06:30;;;;;;;10.38;7.72;;;-2.00;99.90;;;;;;4925932;29;20116;-82
2023/01/21 08:08:56;;;;;;;15.07;7.72;;;-1.90;99.90;;;;;;4909486;29;20066;-82
2023/01/21 08:11:23;;;;;;;12.73;8.25;;;-1.90;99.90;;;;;;4924658;29;20080;-83
2023/01/21 08:13:50;;;;;;;13.38;9.80;;;-1.80;99.90;;;;;;4923840;29;20056;-82
2023/01/21 08:16:17;;;;;;;13.48;8.20;;;-1.80;99.90;;;;;;4908808;29;20063;-82
2023/01/21 08:18:44;;;;;;;13.38;7.53;;;-1.70;99.90;;;;;;4914074;29;20059;-82
2023/01/21 08:21:10;;;;;;;13.23;8.00;;;-1.70;99.90;;;;;;4925930;29;20054;-82
2023/01/21 08:23:37;;;;;;;11.85;7.28;;;-1.60;99.90;;;;;;4928837;29;20055;-82
2023/01/21 08:26:05;;;;;;;11.63;7.60;;;-1.50;99.90;;;;;;4934060;29;20055;-80
2023/01/21 08:28:32;;;;;;;10.13;7.07;;;-1.50;99.90;;;;;;4925456;29;20080;-82
2023/01/21 08:31:05;;;;;;;11.90;7.28;;;-1.50;99.90;;;;;;4925322;29;20056;-81
2023/01/21 08:33:32;;;;;;;12.20;7.55;;;-1.50;99.90;;;;;;4913251;29;20052;-82
2023/01/21 08:36:00;;;;;;;14.60;7.28;;;-1.50;99.90;;;;;;4914532;29;20044;-82
2023/01/21 08:38:27;;;;;;;14.75;8.20;;;-1.40;99.90;;;;;;4925203;29;20052;-82
2023/01/21 08:40:57;;;;;;;12.50;8.05;;;-1.40;99.90;;;;;;4921107;29;20107;-83
2023/01/21 08:43:24;;;;;;;11.10;7.68;;;-1.40;99.90;;;;;;4920791;29;20071;-81
2023/01/21 08:45:54;;;;;;;12.38;7.70;;;-1.40;99.90;;;;;;4921484;29;20083;-80
2023/01/21 08:48:21;;;;;;;11.57;7.00;;;-1.40;99.90;;;;;;4902274;29;20051;-81
2023/01/21 08:50:48;;;;;;;13.07;7.05;;;-1.30;99.90;;;;;;4917322;29;20076;-83
2023/01/21 08:53:15;;;;;;;11.70;7.45;;;-1.30;99.90;;;;;;4923858;29;20056;-81
2023/01/21 08:55:42;;;;;;;11.68;7.25;;;-1.30;99.90;;;;;;4920800;29;20066;-82
2023/01/21 08:58:08;;;;;;;11.27;7.47;;;-1.30;99.90;;;;;;4905950;29;20040;-83
2023/01/21 09:00:35;;;;;;;16.45;8.13;;;-1.30;99.90;;;;;;4924896;29;20083;-81
2023/01/21 09:03:02;;;;;;;13.90;8.15;;;-1.30;99.90;;;;;;4906064;29;20040;-82
2023/01/21 09:05:28;;;;;;;19.55;10.45;;;-1.20;99.90;;;;;;4926369;29;20056;-81
2023/01/21 09:07:55;;;;;;;15.52;10.10;;;-1.20;99.90;;;;;;4910392;29;20071;-80
2023/01/21 09:13:09;;;;;;;20.88;12.60;;;-1.10;99.90;;;;;;4922411;29;20067;-83
2023/01/21 09:15:39;;;;;;;20.02;12.60;;;-1.10;99.90;;;;;;4910137;29;20080;-81
2023/01/21 09:18:06;;;;;;;16.88;10.15;;;-1.10;99.90;;;;;;4899959;29;20067;-81
2023/01/21 09:20:33;;;;;;;11.77;7.22;;;-1.00;99.90;;;;;;4913406;29;20128;-82
2023/01/21 09:23:00;;;;;;;13.80;6.90;;;-1.10;99.90;;;;;;4899370;29;20502;-83
2023/01/21 09:25:26;;;;;;;7.25;4.97;;;-1.10;99.90;;;;;;4923527;28;20082;-84
2023/01/21 09:27:53;;;;;;;8.75;4.82;;;-1.30;99.90;;;;;;4918106;29;20044;-82
2023/01/21 09:30:20;;;;;;;9.88;5.88;;;-1.30;99.90;;;;;;4920400;29;20404;-81
2023/01/21 09:32:47;;;;;;;6.93;4.43;;;-1.40;99.90;;;;;;4935228;28;20085;-82
2023/01/21 09:35:13;;;;;;;8.73;5.22;;;-1.40;99.90;;;;;;4932082;28;20040;-81
2023/01/21 09:37:40;;;;;;;9.27;4.57;;;-1.30;99.90;;;;;;4914638;29;20056;-82
2023/01/21 09:40:14;;;;;;;5.55;3.85;;;-1.20;99.90;;;;;;4914367;29;20076;-82
2023/01/21 09:42:42;;;;;;;6.70;4.63;;;-1.20;99.90;;;;;;4908933;29;20048;-80
2023/01/21 09:45:13;;;;;;;7.43;4.63;;;-1.10;99.90;;;;;;4919085;29;20075;-80
2023/01/21 09:47:43;;;;;;;7.60;5.25;;;-1.00;99.90;;;;;;4916951;29;20143;-82
2023/01/21 09:50:13;;;;;;;11.10;6.43;;;-1.00;99.90;;;;;;4900837;29;20052;-84
2023/01/21 09:52:44;;;;;;;10.90;6.37;;;-1.00;99.90;;;;;;4917318;29;20060;-83
2023/01/21 09:55:17;;;;;;;11.93;6.43;;;-1.00;99.90;;;;;;4900983;29;20096;-82
2023/01/21 09:58:05;;;;;;;10.25;6.32;;;-1.00;99.90;;;;;;4915530;29;20108;-83
2023/01/21 10:00:56;;;;;;;9.77;6.28;;;-0.90;99.90;;;;;;4895277;29;20053;-83
2023/01/21 10:03:31;;;;;;;8.02;4.78;;;-0.90;99.90;;;;;;4915544;29;20044;-80
2023/01/21 10:06:13;;;;;;;12.13;5.03;;;-0.80;99.90;;;;;;4914403;29;20067;-82
2023/01/21 10:08:55;;;;;;;9.10;4.75;;;-0.80;99.90;;;;;;4915820;29;20052;-82
2023/01/21 10:11:52;;;;;;;6.90;3.70;;;-0.80;99.90;;;;;;4899898;29;20131;-82
2023/01/21 10:14:50;;;;;;;5.05;3.35;;;-0.70;99.90;;;;;;4892398;29;20127;-82
2023/01/21 10:17:55;;;;;;;5.80;3.35;;;-0.70;99.90;;;;;;4914360;29;20569;-83
2023/01/21 10:20:37;;;;;;;4.45;2.92;;;-0.60;99.90;;;;;;4913620;29;20068;-82
2023/01/21 10:23:25;;;;;;;3.85;2.92;;;-0.60;99.90;;;;;;4909327;29;20072;-84
2023/01/21 10:25:52;;;;;;;4.93;2.67;;;-0.60;99.90;;;;;;4893807;29;20135;-84
2023/01/21 10:28:22;;;;;;;5.13;3.60;;;-0.60;99.90;;;;;;4895751;29;20062;-83
2023/01/21 10:30:51;;;;;;;4.05;3.10;;;-0.60;99.90;;;;;;4909807;29;20049;-83
2023/01/21 10:33:24;;;;;;;4.43;3.17;;;-0.50;99.90;;;;;;4909789;29;20498;-83
2023/01/21 10:36:25;;;;;;;5.40;3.30;;;-0.50;99.90;;;;;;4894331;29;20185;-84
2023/01/21 10:39:14;;;;;;;6.97;3.55;;;-0.50;99.90;;;;;;4904385;29;20060;-84
2023/01/21 10:42:09;;;;;;;6.63;4.23;;;-0.50;99.90;;;;;;4907425;29;20123;-85
2023/01/21 10:44:58;;;;;;;6.32;4.47;;;-0.50;99.90;;;;;;4895918;29;20051;-83
2023/01/21 10:47:28;;;;;;;4.07;3.15;;;-0.50;99.90;;;;;;4896433;29;20091;-83
2023/01/21 10:50:35;;;;;;;8.88;4.05;;;-0.60;99.90;;;;;;4900585;29;20058;-81
2023/01/21 10:53:24;;;;;;;8.38;3.90;;;-0.60;99.90;;;;;;4917157;29;20051;-84
2023/01/21 10:56:28;;;;;;;7.72;4.28;;;-0.50;99.90;;;;;;4919939;29;20138;-83
2023/01/21 10:59:04;;;;;;;7.53;3.65;;;-0.50;99.90;;;;;;4922851;29;20048;-84
2023/01/21 11:01:36;;;;;;;6.72;4.15;;;-0.50;99.90;;;;;;4897790;29;20044;-82
2023/01/21 11:04:35;;;;;;;6.28;3.90;;;-0.40;99.90;;;;;;4900481;29;20096;-84
2023/01/21 11:07:06;;;;;;;8.45;4.07;;;-0.50;99.90;;;;;;4871359;29;20127;-83
2023/01/21 11:09:45;;;;;;;12.02;4.93;;;-0.40;99.90;;;;;;4913699;29;20074;-83
2023/01/21 11:12:17;;;;;;;11.18;5.10;;;-0.30;99.90;;;;;;4898323;29;20665;-83
2023/01/21 11:14:54;;;;;;;7.55;4.72;;;-0.20;99.90;;;;;;4896077;29;20072;-82
2023/01/21 11:17:33;;;;;;;6.43;4.28;;;-0.20;99.90;;;;;;4903081;29;20052;-83
2023/01/21 11:20:03;;;;;;;8.15;5.03;;;-0.10;99.90;;;;;;4904938;29;20052;-83
2023/01/21 11:22:31;;;;;;;9.65;5.70;;;0.00;99.90;;;;;;4909738;29;20052;-83
2023/01/21 11:24:59;;;;;;;8.30;5.50;;;0.10;99.90;;;;;;4912955;29;20173;-83
2023/01/21 11:27:33;;;;;;;8.93;5.82;;;0.20;99.90;;;;;;4916239;29;20616;-83
2023/01/21 11:30:01;;;;;;;11.02;6.75;;;0.30;99.90;;;;;;4903585;29;20135;-80
2023/01/21 11:32:29;;;;;;;11.23;6.43;;;0.40;99.90;;;;;;4903892;29;20122;-83
2023/01/21 11:35:08;;;;;;;11.55;6.78;;;0.60;99.90;;;;;;4917710;29;20099;-80
2023/01/21 11:37:37;;;;;;;10.75;7.85;;;0.70;99.90;;;;;;4917623;29;20048;-82
2023/01/21 11:40:21;;;;;;;11.20;7.25;;;0.80;99.90;;;;;;4934529;29;20079;-82
2023/01/21 11:42:51;;;;;;;13.68;7.95;;;0.90;99.90;;;;;;4927174;29;20044;-81
2023/01/21 11:45:30;;;;;;;15.33;7.63;;;1.00;99.90;;;;;;4933418;29;20052;-82
2023/01/21 11:47:59;;;;;;;10.98;7.30;;;1.00;99.90;;;;;;4935491;29;20134;-83
2023/01/21 11:50:34;;;;;;;14.02;7.30;;;1.10;99.90;;;;;;4937769;29;20058;-81
2023/01/21 11:53:10;;;;;;;17.40;8.52;;;1.10;99.90;;;;;;4933703;29;20413;-81
2023/01/21 11:55:49;;;;;;;11.88;6.90;;;1.00;99.90;;;;;;4924034;29;20052;-83
2023/01/21 11:58:29;;;;;;;12.15;6.63;;;0.90;99.90;;;;;;4946640;29;20080;-82
2023/01/21 12:01:01;;;;;;;12.80;6.85;;;0.80;99.90;;;;;;4940498;29;20043;-81
2023/01/21 12:03:41;;;;;;;13.93;7.70;;;0.70;99.90;;;;;;4930661;29;20054;-81
2023/01/21 12:06:15;;;;;;;17.60;7.82;;;0.80;99.90;;;;;;4919179;29;20607;-81
2023/01/21 12:08:44;;;;;;;13.98;7.13;;;0.80;99.90;;;;;;4912791;29;20111;-82
2023/01/21 12:11:21;;;;;;;14.13;7.75;;;0.80;99.90;;;;;;4919123;29;20090;-82
2023/01/21 12:14:02;;;;;;;12.77;5.90;;;0.80;99.90;;;;;;4941499;29;20095;-82
2023/01/21 12:17:10;;;;;;;14.70;8.48;;;0.70;99.90;;;;;;4917298;29;20051;-82
2023/01/21 12:20:16;;;;;;;12.60;7.72;;;0.80;99.90;;;;;;4923593;29;20532;-81
2023/01/21 12:23:19;;;;;;;11.55;6.15;;;0.80;99.90;;;;;;4904693;29;20051;-81
2023/01/21 12:26:10;;;;;;;13.75;8.75;;;0.70;99.90;;;;;;4930816;29;20071;-81
2023/01/21 12:28:56;;;;;;;14.65;8.23;;;0.80;99.90;;;;;;4934800;29;20128;-81
2023/01/21 12:31:36;;;;;;;13.00;8.57;;;0.80;99.90;;;;;;4933476;29;20098;-81
2023/01/21 12:34:18;;;;;;;20.73;12.52;;;0.80;99.90;;;;;;4934941;29;20063;-81
2023/01/21 12:37:08;;;;;;;20.40;12.15;;;0.90;99.90;;;;;;4929590;29;20061;-81
2023/01/21 12:39:40;;;;;;;20.85;12.35;;;0.90;99.90;;;;;;4937282;29;20130;-81
2023/01/21 12:42:21;;;;;;;23.98;13.38;;;1.00;99.90;;;;;;4938697;29;20048;-81
2023/01/21 12:44:54;;;;;;;22.40;13.75;;;1.00;99.90;;;;;;4937096;29;20053;-81
2023/01/21 12:47:24;;;;;;;24.20;14.65;;;1.10;99.90;;;;;;4930633;29;20565;-81
2023/01/21 12:50:27;;;;;;;26.42;14.73;;;1.10;99.90;;;;;;4937328;29;20047;-81
2023/01/21 12:53:25;;;;;;;22.67;15.23;;;1.10;99.90;;;;;;4875390;29;20127;-81
2023/01/21 12:56:08;;;;;;;26.27;16.08;;;1.10;99.90;;;;;;4933961;29;20146;-80
2023/01/21 12:58:44;;;;;;;19.80;13.35;;;1.00;99.90;;;;;;4933319;29;20133;-80
2023/01/21 13:01:21;;;;;;;23.00;13.98;;;1.00;99.90;;;;;;4922107;29;20143;-80
2023/01/21 13:04:32;;;;;;;24.35;15.25;;;0.90;99.90;;;;;;4910807;29;20160;-80
2023/01/21 13:07:17;;;;;;;27.35;15.95;;;0.90;99.90;;;;;;4862851;29;20059;-80
2023/01/21 13:09:57;;;;;;;25.98;14.48;;;0.90;99.90;;;;;;4929337;29;20112;-80
2023/01/21 13:12:26;;;;;;;22.27;13.38;;;0.90;99.90;;;;;;4923414;29;20064;-81
2023/01/21 13:15:19;;;;;;;23.80;14.73;;;0.80;99.90;;;;;;4927490;29;20497;-80
2023/01/21 13:17:54;;;;;;;24.23;14.02;;;0.90;99.90;;;;;;4931351;29;20111;-81
2023/01/21 13:20:21;;;;;;;23.73;12.20;;;0.90;99.90;;;;;;4919118;29;20046;-81
2023/01/21 13:22:54;;;;;;;20.27;9.73;;;0.90;99.90;;;;;;4930908;29;20143;-80
2023/01/21 13:25:39;;;;;;;23.95;12.60;;;0.80;99.90;;;;;;4929584;29;20084;-80
2023/01/21 13:28:14;;;;;;;19.23;12.30;;;0.80;99.90;;;;;;4933639;29;20052;-81
2023/01/21 13:30:48;;;;;;;22.70;13.43;;;0.90;99.90;;;;;;4927225;29;20043;-79
2023/01/21 13:33:40;;;;;;;18.55;11.02;;;0.90;99.90;;;;;;4916336;29;20053;-80
2023/01/21 13:36:25;;;;;;;24.42;12.98;;;0.90;99.90;;;;;;4925974;29;20055;-80
2023/01/21 13:39:10;;;;;;;21.25;12.18;;;1.00;99.90;;;;;;4930812;29;20078;-80
2023/01/21 13:42:08;;;;;;;19.05;11.70;;;1.00;99.90;;;;;;4926743;29;20131;-80
2023/01/21 13:44:55;;;;;;;19.92;12.80;;;1.10;99.90;;;;;;4928835;29;20135;-80
2023/01/21 13:47:37;;;;;;;24.67;11.55;;;1.20;99.90;;;;;;4931960;29;20128;-80
2023/01/21 13:50:20;;;;;;;16.55;10.23;;;1.30;99.90;;;;;;4928970;29;20054;-80
2023/01/21 13:53:14;;;;;;;19.58;12.27;;;1.30;99.90;;;;;;4926922;29;20072;-79
2023/01/21 13:55:55;;;;;;;21.15;13.57;;;1.30;99.90;;;;;;4916140;29;20048;-79
2023/01/21 13:58:34;;;;;;;20.58;13.30;;;1.30;99.90;;;;;;4925494;29;20079;-77
2023/01/21 14:01:16;;;;;;;22.92;13.07;;;1.30;99.90;;;;;;4926260;29;20083;-84
2023/01/21 14:03:54;;;;;;;23.02;12.60;;;1.20;99.90;;;;;;4917109;29;20046;-80
2023/01/21 14:06:48;;;;;;;28.27;13.18;;;1.10;99.90;;;;;;4930284;29;20048;-79
2023/01/21 14:09:25;;;;;;;21.67;11.50;;;1.00;99.90;;;;;;4919458;29;20134;-80
2023/01/21 14:12:01;;;;;;;22.02;14.23;;;1.00;99.90;;;;;;4927827;29;20063;-80
2023/01/21 14:14:48;;;;;;;24.17;13.05;;;1.10;99.90;;;;;;4932857;29;20094;-79
2023/01/21 14:17:30;;;;;;;22.13;13.27;;;1.10;99.90;;;;;;4931159;29;20134;-78
2023/01/21 14:20:27;;;;;;;22.25;13.50;;;1.10;99.90;;;;;;4933979;29;20054;-79
2023/01/21 14:23:21;;;;;;;26.08;12.80;;;1.10;99.90;;;;;;4935499;29;20081;-80
2023/01/21 14:26:12;;;;;;;18.27;9.77;;;1.10;99.90;;;;;;4961492;23;20054;-77
2023/01/21 14:28:52;;;;;;;18.50;11.60;;;1.10;99.90;;;;;;4922539;29;21562;-78
2023/01/21 14:31:29;;;;;;;21.00;13.60;;;1.10;99.90;;;;;;4927980;29;20489;-76
2023/01/21 14:34:25;;;;;;;22.77;13.05;;;1.10;99.90;;;;;;4917170;29;20074;-78
2023/01/21 14:37:04;;;;;;;24.52;13.57;;;1.10;99.90;;;;;;4919389;29;20051;-76
2023/01/21 14:39:51;;;;;;;27.87;15.13;;;1.10;99.90;;;;;;4904002;29;20156;-77
2023/01/21 14:42:25;;;;;;;20.23;12.90;;;1.10;99.90;;;;;;4908439;29;20317;-78
2023/01/21 14:44:52;;;;;;;22.40;14.60;;;1.00;99.90;;;;;;4916466;29;20414;-78
2023/01/21 14:47:23;;;;;;;22.42;13.40;;;0.90;99.90;;;;;;4907784;29;20054;-78
2023/01/21 14:49:52;;;;;;;21.25;14.70;;;0.80;99.90;;;;;;4918785;29;20054;-77
2023/01/21 14:52:26;;;;;;;28.00;15.02;;;0.90;99.90;;;;;;4920740;29;20052;-77
2023/01/21 14:54:52;;;;;;;22.75;13.40;;;0.80;99.90;;;;;;4903640;29;20123;-75
2023/01/21 14:57:27;;;;;;;22.35;13.73;;;0.80;99.90;;;;;;4915358;29;20112;-77
2023/01/21 15:00:01;;;;;;;20.02;11.43;;;0.80;99.90;;;;;;4911069;29;20048;-78
2023/01/21 15:02:36;;;;;;;23.83;13.65;;;0.70;99.90;;;;;;4895540;29;20155;-78
2023/01/21 15:05:23;;;;;;;24.95;13.68;;;0.70;99.90;;;;;;4911151;29;20080;-77
2023/01/21 15:08:07;;;;;;;27.92;13.20;;;0.70;99.90;;;;;;4908237;29;20590;-78
2023/01/21 15:10:37;;;;;;;18.75;9.73;;;0.70;99.90;;;;;;4916794;29;20135;-78
2023/01/21 15:13:20;;;;;;;27.60;14.48;;;0.60;99.90;;;;;;4915343;29;20059;-78
2023/01/21 15:16:13;;;;;;;23.23;13.13;;;0.50;99.90;;;;;;4900388;29;20052;-79
2023/01/21 15:19:03;;;;;;;23.55;13.98;;;0.50;99.90;;;;;;4912571;29;20068;-76
2023/01/21 15:21:39;;;;;;;26.50;13.88;;;0.50;99.90;;;;;;4913188;29;20135;-77
2023/01/21 15:24:23;;;;;;;25.92;14.52;;;0.50;99.90;;;;;;4909663;29;20052;-77
2023/01/21 15:27:12;;;;;;;24.48;14.05;;;0.50;99.90;;;;;;4912485;29;20498;-79
2023/01/21 15:29:52;;;;;;;29.83;15.50;;;0.50;99.90;;;;;;4911803;29;20135;-78
2023/01/21 15:32:29;;;;;;;;;;;0.50;99.90;;;;;;4901661;29;20128;-78
2023/01/21 15:35:18;;;;;;;28.65;13.48;;;0.40;99.90;;;;;;4915675;29;19923;-77
2023/01/21 15:37:50;;;;;;;24.20;14.52;;;0.40;99.90;;;;;;4895000;29;20053;-78
2023/01/21 15:40:34;;;;;;;25.83;15.00;;;0.30;99.90;;;;;;4898239;29;20494;-78
2023/01/21 15:43:24;;;;;;;27.23;16.48;;;0.30;99.90;;;;;;4913954;29;20048;-78
2023/01/21 15:46:01;;;;;;;;;;;0.40;99.90;;;;;;4916856;29;20048;-78
2023/01/21 15:48:49;;;;;;;24.98;14.55;;;0.40;99.90;;;;;;4909564;29;19927;-79
2023/01/21 15:51:37;;;;;;;28.08;16.65;;;0.40;99.90;;;;;;4909953;29;20058;-78
2023/01/21 15:54:15;;;;;;;26.40;14.80;;;0.40;99.90;;;;;;4895042;29;20075;-78
2023/01/21 15:56:47;;;;;;;27.02;16.35;;;0.30;99.90;;;;;;4898479;29;20453;-78
2023/01/21 15:59:34;;;;;;;33.13;14.68;;;0.30;99.90;;;;;;4916640;29;20044;-78
2023/01/21 16:02:17;;;;;;;33.83;16.95;;;0.20;99.90;;;;;;4915249;29;20446;-78
2023/01/21 16:05:03;;;;;;;27.42;15.50;;;0.10;99.90;;;;;;4912382;29;20079;-79
2023/01/21 16:07:56;;;;;;;30.38;17.40;;;0.10;99.90;;;;;;4913008;29;20084;-77
2023/01/21 16:10:45;;;;;;;29.83;17.38;;;0.10;99.90;;;;;;4914276;29;20135;-78
2023/01/21 16:13:43;;;;;;;30.55;18.08;;;0.10;99.90;;;;;;4911112;29;20062;-78
2023/01/21 16:16:32;;;;;;;27.38;16.63;;;0.00;99.90;;;;;;4909397;29;20387;-78
2023/01/21 16:19:07;;;;;;;32.28;17.15;;;0.00;99.90;;;;;;4907638;29;20048;-78
2023/01/21 16:21:35;;;;;;;29.70;16.75;;;-0.10;99.90;;;;;;4913762;29;20143;-77
2023/01/21 16:24:08;;;;;;;25.27;15.60;;;0.00;99.90;;;;;;4916309;29;20123;-76
2023/01/21 16:26:35;;;;;;;30.98;17.77;;;-0.10;99.90;;;;;;4900847;29;20492;-78
2023/01/21 16:29:12;;;;;;;38.40;20.52;;;-0.10;99.90;;;;;;4913146;29;20052;-78
2023/01/21 16:31:58;;;;;;;31.63;18.27;;;-0.20;99.90;;;;;;4909140;29;20095;-78
2023/01/21 16:34:42;;;;;;;34.28;18.48;;;-0.20;99.90;;;;;;4891695;29;20403;-78
2023/01/21 16:37:21;;;;;;;32.35;17.60;;;-0.20;99.90;;;;;;4916866;29;20086;-78
2023/01/21 16:39:51;;;;;;;32.42;17.73;;;-0.20;99.90;;;;;;4914054;29;20562;-77
2023/01/21 16:42:27;;;;;;;;;;;-0.30;99.90;;;;;;4915282;29;20044;-78
2023/01/21 16:44:54;;;;;;;38.05;19.98;;;-0.30;99.90;;;;;;4902258;29;19938;-78
2023/01/21 16:47:32;;;;;;;32.55;18.33;;;-0.30;99.90;;;;;;4913358;29;20514;-78
2023/01/21 16:50:00;;;;;;;30.63;17.92;;;-0.40;99.90;;;;;;4909051;29;20075;-77
2023/01/21 16:52:27;;;;;;;35.53;18.25;;;-0.40;99.90;;;;;;4911575;29;20056;-78
2023/01/21 16:54:54;;;;;;;37.65;20.23;;;-0.40;99.90;;;;;;4899701;29;20052;-78
2023/01/21 16:57:30;;;;;;;31.50;19.02;;;-0.30;99.90;;;;;;4909558;29;20498;-79
2023/01/21 17:00:00;;;;;;;35.45;20.13;;;-0.30;99.90;;;;;;4908012;29;20052;-78
2023/01/21 17:02:32;;;;;;;31.92;18.75;;;-0.30;99.90;;;;;;4898984;29;20125;-78
2023/01/21 17:05:03;;;;;;;35.20;19.90;;;-0.40;99.90;;;;;;4898307;29;20095;-77
2023/01/21 17:07:42;;;;;;;33.72;19.40;;;-0.40;99.90;;;;;;4914610;29;20052;-79
2023/01/21 17:10:25;;;;;;;29.52;17.02;;;-0.50;99.90;;;;;;4912183;29;20056;-78
2023/01/21 17:13:04;;;;;;;33.08;17.17;;;-0.50;99.90;;;;;;4917316;29;20495;-78
2023/01/21 17:15:42;;;;;;;25.33;13.60;;;-0.50;99.90;;;;;;4920235;29;20104;-78
2023/01/21 17:18:26;;;;;;;33.38;18.77;;;-0.60;99.90;;;;;;4902765;29;20462;-77
2023/01/21 17:21:19;;;;;;;33.33;18.20;;;-0.60;99.90;;;;;;4915737;29;20100;-79
2023/01/21 17:23:46;;;;;;;30.50;17.80;;;-0.70;99.90;;;;;;4914557;29;20055;-78
2023/01/21 17:26:21;;;;;;;30.95;18.17;;;-0.60;99.90;;;;;;4906663;29;20048;-78
2023/01/21 17:28:56;;;;;;;36.92;19.25;;;-0.60;99.90;;;;;;4911589;29;20052;-77
2023/01/21 17:31:34;;;;;;;32.88;16.27;;;-0.60;99.90;;;;;;4907375;29;20062;-77
2023/01/21 17:34:09;;;;;;;24.88;15.75;;;-0.60;99.90;;;;;;4909653;29;20130;-78
2023/01/21 17:36:37;;;;;;;34.92;21.02;;;-0.60;99.90;;;;;;4910775;29;20613;-76
2023/01/21 17:39:06;;;;;;;33.72;20.95;;;-0.60;99.90;;;;;;4905912;29;20585;-79
2023/01/21 17:41:36;;;;;;;33.10;18.30;;;-0.60;99.90;;;;;;4907797;29;20053;-77
2023/01/21 17:44:14;;;;;;;35.67;19.40;;;-0.60;99.90;;;;;;4897286;29;20111;-79
2023/01/21 17:46:49;;;;;;;31.00;17.25;;;-0.50;99.90;;;;;;4911801;29;20054;-78
2023/01/21 17:49:18;;;;;;;30.50;17.00;;;-0.50;99.90;;;;;;4910201;29;20062;-75
2023/01/21 17:51:45;;;;;;;34.35;18.45;;;-0.50;99.90;;;;;;4911316;29;20062;-77
2023/01/21 17:54:21;;;;;;;29.17;15.65;;;-0.50;99.90;;;;;;4909100;29;20048;-77
2023/01/21 17:56:50;;;;;;;30.50;17.55;;;-0.50;99.90;;;;;;4903507;29;20489;-78
2023/01/21 17:59:36;;;;;;;29.60;16.60;;;-0.50;99.90;;;;;;4918079;29;20048;-77
2023/01/21 18:02:08;;;;;;;27.83;15.93;;;-0.50;99.90;;;;;;4898797;29;20052;-78
2023/01/21 18:04:35;;;;;;;26.77;14.82;;;-0.60;99.90;;;;;;4897668;29;20054;-78
2023/01/21 18:07:05;;;;;;;29.35;16.20;;;-0.60;99.90;;;;;;4908356;29;20612;-77
2023/01/21 18:09:33;;;;;;;29.80;18.13;;;-0.60;99.90;;;;;;4905949;29;20057;-79
2023/01/21 18:12:00;;;;;;;31.30;16.92;;;-0.60;99.90;;;;;;4899579;29;20055;-79
2023/01/21 18:14:27;;;;;;;29.30;16.67;;;-0.50;99.90;;;;;;4912696;29;20086;-79
2023/01/21 18:16:54;;;;;;;27.02;14.88;;;-0.60;99.90;;;;;;4918828;29;20052;-79
2023/01/21 18:19:28;;;;;;;34.40;16.80;;;-0.60;99.90;;;;;;4910602;29;20044;-79
2023/01/21 18:21:55;;;;;;;34.25;16.63;;;-0.60;99.90;;;;;;4911880;29;20048;-78
2023/01/21 18:24:23;;;;;;;33.38;17.38;;;-0.60;99.90;;;;;;4903316;29;20080;-79
2023/01/21 18:26:50;;;;;;;27.05;15.38;;;-0.60;99.90;;;;;;4907702;29;20055;-79
2023/01/21 18:29:18;;;;;;;38.05;18.88;;;-0.60;99.90;;;;;;4905335;29;20051;-79
2023/01/21 18:31:47;;;;;;;31.35;15.50;;;-0.60;99.90;;;;;;4897656;29;20498;-79
2023/01/21 18:34:14;;;;;;;32.78;17.88;;;-0.60;99.90;;;;;;4898651;29;20131;-81
2023/01/21 18:36:41;;;;;;;27.08;16.42;;;-0.60;99.90;;;;;;4908958;29;20066;-79
2023/01/21 18:39:13;;;;;;;27.52;17.02;;;-0.60;99.90;;;;;;4918384;29;20039;-78
2023/01/21 18:41:40;;;;;;;28.58;15.77;;;-0.60;99.90;;;;;;4917904;29;20470;-79
2023/01/21 18:44:07;;;;;;;25.98;15.63;;;-0.60;99.90;;;;;;4906632;29;20067;-79
2023/01/21 18:46:40;;;;;;;36.53;18.63;;;-0.60;99.90;;;;;;4923205;29;20413;-79
2023/01/21 18:49:15;;;;;;;31.40;17.85;;;-0.60;99.90;;;;;;4905913;29;20091;-79
2023/01/21 18:51:42;;;;;;;32.42;17.77;;;-0.60;99.90;;;;;;4907653;29;20420;-79
2023/01/21 18:54:11;;;;;;;26.55;15.45;;;-0.60;99.90;;;;;;4912145;29;20132;-79
2023/01/21 18:56:39;;;;;;;29.60;16.25;;;-0.70;99.90;;;;;;4918199;29;20052;-79
2023/01/21 18:59:16;;;;;;;32.78;17.92;;;-0.60;99.90;;;;;;4905381;29;20058;-79
2023/01/21 19:01:43;;;;;;;30.48;17.73;;;-0.60;99.90;;;;;;4919029;29;20112;-79
2023/01/21 19:04:14;;;;;;;26.65;16.17;;;-0.60;99.90;;;;;;4922860;29;20122;-79
2023/01/21 19:06:41;;;;;;;31.25;17.45;;;-0.60;99.90;;;;;;4917770;29;20056;-79
2023/01/21 19:09:16;;;;;;;20.35;13.05;;;-0.60;99.90;;;;;;4922613;29;20044;-79
2023/01/21 19:11:43;;;;;;;29.30;16.50;;;-0.70;99.90;;;;;;4902840;29;20087;-78
2023/01/21 19:14:10;;;;;;;29.52;16.63;;;-0.60;99.90;;;;;;4918575;29;20135;-78
2023/01/21 19:16:37;;;;;;;29.88;16.63;;;-0.70;99.90;;;;;;4916724;29;20071;-78
2023/01/21 19:19:15;;;;;;;27.13;15.15;;;-0.70;99.90;;;;;;4914196;29;20087;-78
2023/01/21 19:21:42;;;;;;;28.83;16.30;;;-0.70;99.90;;;;;;4913511;29;20083;-79
2023/01/21 19:24:09;;;;;;;26.35;13.23;;;-0.70;99.90;;;;;;4917689;29;20040;-79
2023/01/21 19:26:38;;;;;;;30.98;17.05;;;-0.70;99.90;;;;;;4920830;29;20081;-82
2023/01/21 19:29:12;;;;;;;28.85;16.05;;;-0.70;99.90;;;;;;4918017;29;20103;-79
2023/01/21 19:31:39;;;;;;;37.10;18.80;;;-0.70;99.90;;;;;;4920301;29;20155;-80
2023/01/21 19:34:07;;;;;;;35.95;16.25;;;-0.60;99.90;;;;;;4925063;29;20054;-78
2023/01/21 19:36:34;;;;;;;25.27;15.70;;;-0.70;99.90;;;;;;4900782;29;20055;-78
2023/01/21 19:39:01;;;;;;;25.05;15.55;;;-0.70;99.90;;;;;;4917898;29;20040;-78
2023/01/21 19:41:28;;;;;;;26.83;15.75;;;-0.70;99.90;;;;;;4903119;29;20564;-79
2023/01/21 19:43:54;;;;;;;27.48;14.43;;;-0.60;99.90;;;;;;4913772;29;20406;-78
2023/01/21 19:46:22;;;;;;;28.45;17.02;;;-0.60;99.90;;;;;;4917062;29;20107;-79
2023/01/21 19:48:52;;;;;;;28.15;14.27;;;-0.60;99.90;;;;;;4906097;29;20461;-79
2023/01/21 19:51:19;;;;;;;27.25;16.05;;;-0.60;99.90;;;;;;4914729;29;20052;-78
2023/01/21 19:53:45;;;;;;;25.70;14.90;;;-0.60;99.90;;;;;;4913918;29;20131;-79
2023/01/21 19:56:18;;;;;;;26.95;16.17;;;-0.60;99.90;;;;;;4899680;29;20067;-78
2023/01/21 19:58:44;;;;;;;27.60;15.80;;;-0.50;99.90;;;;;;4901900;29;20073;-79
2023/01/21 20:01:11;;;;;;;34.58;18.02;;;-0.50;99.90;;;;;;4895899;29;20044;-78
2023/01/21 20:03:38;;;;;;;26.58;16.33;;;-0.50;99.90;;;;;;4911098;29;20052;-78
2023/01/21 20:06:22;;;;;;;29.58;17.02;;;-0.50;99.90;;;;;;4909235;29;20510;-78
2023/01/21 20:08:49;;;;;;;29.38;15.95;;;-0.50;99.90;;;;;;4900314;29;20082;-78
2023/01/21 20:11:16;;;;;;;28.60;17.05;;;-0.50;99.90;;;;;;4903161;29;20779;-78
2023/01/21 20:13:43;;;;;;;28.98;17.75;;;-0.50;99.90;;;;;;4923731;29;20060;-78
2023/01/21 20:16:15;;;;;;;29.42;16.05;;;-0.40;99.90;;;;;;4926488;29;20130;-78
2023/01/21 20:18:44;;;;;;;28.95;15.45;;;-0.40;99.90;;;;;;4920434;29;20049;-79
2023/01/21 20:21:11;;;;;;;28.15;15.60;;;-0.40;99.90;;;;;;4898538;29;20051;-79
2023/01/21 20:23:38;;;;;;;30.67;17.00;;;-0.40;99.90;;;;;;4901377;29;20083;-78
2023/01/21 20:26:09;;;;;;;30.60;17.77;;;-0.40;99.90;;;;;;4907809;29;20083;-75
2023/01/21 20:28:42;;;;;;;30.00;17.58;;;-0.30;99.90;;;;;;4940677;23;20063;-83
2023/01/21 20:31:09;;;;;;;28.55;16.05;;;-0.30;99.90;;;;;;4942079;28;20485;-82
2023/01/21 20:33:36;;;;;;;29.77;15.80;;;-0.30;99.90;;;;;;4946629;29;20059;-82
2023/01/21 20:36:05;;;;;;;24.70;14.07;;;-0.40;99.90;;;;;;4933272;29;20051;-83
2023/01/21 20:38:34;;;;;;;23.17;13.23;;;-0.40;99.90;;;;;;4939560;29;20083;-84
2023/01/21 20:41:03;;;;;;;25.50;15.93;;;-0.50;99.90;;;;;;4903428;29;20055;-83
2023/01/21 20:43:30;;;;;;;27.70;15.35;;;-0.40;99.90;;;;;;4917086;29;20115;-84
2023/01/21 20:46:00;;;;;;;29.27;16.33;;;-0.40;99.90;;;;;;4904621;29;20695;-82
2023/01/21 20:48:28;;;;;;;29.90;17.05;;;-0.40;99.90;;;;;;4904204;29;20473;-84
2023/01/21 20:50:55;;;;;;;28.38;16.05;;;-0.40;99.90;;;;;;4900882;29;20078;-83
2023/01/21 20:53:22;;;;;;;26.85;15.13;;;-0.50;99.90;;;;;;4928349;29;20055;-78
2023/01/21 20:55:50;;;;;;;24.13;14.90;;;-0.40;99.90;;;;;;4931191;29;20048;-82
2023/01/21 20:58:20;;;;;;;26.25;15.23;;;-0.40;99.90;;;;;;4923194;29;20044;-82
2023/01/21 21:00:48;;;;;;;28.52;15.10;;;-0.40;99.90;;;;;;4904807;29;20047;-81